createdAt,value
2022-10-06T00:00:38.706Z,101225.66
2022-10-06T00:03:05.324Z,101231.09
2022-10-06T00:05:32.180Z,101243.59
2022-10-06T00:08:00.285Z,101240.22
2022-10-06T00:10:28.444Z,101228.22
2022-10-06T00:12:55.245Z,101233.28
2022-10-06T00:15:28.069Z,101237.59
2022-10-06T00:17:55.562Z,101244.63
2022-10-06T00:20:23.525Z,101252.09
2022-10-06T00:22:50.205Z,101261.09
2022-10-06T00:25:20.149Z,101266.50
2022-10-06T00:27:48.895Z,101264.28
2022-10-06T00:30:22.110Z,101251.91
2022-10-06T00:32:54.598Z,101262.44
2022-10-06T00:35:21.940Z,101254.03
2022-10-06T00:37:49.060Z,101259.22
2022-10-06T00:40:16.721Z,101260.06
2022-10-06T00:42:59.831Z,101265.94
2022-10-06T00:45:31.638Z,101271.28
2022-10-06T00:48:02.606Z,101268.13
2022-10-06T00:50:30.718Z,101280.59
2022-10-06T00:52:57.875Z,101277.06
2022-10-06T00:55:24.632Z,101279.44
2022-10-06T00:57:52.898Z,101277.56
2022-10-06T01:00:20.729Z,101283.91
2022-10-06T01:02:57.138Z,101279.28
2022-10-06T01:05:31.233Z,101287.09
2022-10-06T01:07:58.796Z,101284.44
2022-10-06T01:10:25.397Z,101284.50
2022-10-06T01:12:52.223Z,101283.78
2022-10-06T01:15:21.077Z,101287.59
2022-10-06T01:18:13.332Z,101291.75
2022-10-06T01:20:49.360Z,101287.06
2022-10-06T01:23:16.823Z,101289.06
2022-10-06T01:25:44.771Z,101286.44
2022-10-06T01:28:13.214Z,101296.28
2022-10-06T01:30:46.351Z,101303.59
2022-10-06T01:33:12.995Z,101305.03
2022-10-06T01:35:39.662Z,101304.59
2022-10-06T01:38:06.272Z,101306.91
2022-10-06T01:40:32.906Z,101304.00
2022-10-06T01:42:59.498Z,101307.66
2022-10-06T01:45:26.113Z,101308.56
2022-10-06T01:47:53.084Z,101297.88
2022-10-06T01:50:19.886Z,101306.63
2022-10-06T01:52:46.457Z,101298.63
2022-10-06T01:55:13.595Z,101302.56
2022-10-06T01:57:43.890Z,101298.38
2022-10-06T02:00:11.921Z,101298.31
2022-10-06T02:02:38.497Z,101298.50
2022-10-06T02:05:06.161Z,101293.59
2022-10-06T02:07:35.550Z,101297.72
2022-10-06T02:10:02.519Z,101293.97
2022-10-06T02:12:31.785Z,101295.34
2022-10-06T02:14:58.720Z,101297.72
2022-10-06T02:17:25.344Z,101297.41
2022-10-06T02:19:51.948Z,101298.84
2022-10-06T02:22:18.550Z,101303.69
2022-10-06T02:24:45.160Z,101312.97
2022-10-06T02:27:11.827Z,101314.75
2022-10-06T02:29:38.423Z,101314.13
2022-10-06T02:32:05.792Z,101309.69
2022-10-06T02:34:33.108Z,101325.06
2022-10-06T02:36:59.749Z,101320.22
2022-10-06T02:39:26.291Z,101318.66
2022-10-06T02:41:52.913Z,101324.31
2022-10-06T02:44:19.479Z,101322.97
2022-10-06T02:46:46.143Z,101327.91
2022-10-06T02:49:13.395Z,101328.94
2022-10-06T02:51:39.982Z,101333.38
2022-10-06T02:54:06.603Z,101332.44
2022-10-06T02:56:33.209Z,101342.00
2022-10-06T02:58:59.804Z,101345.59
2022-10-06T03:01:28.727Z,101347.91
2022-10-06T03:03:55.948Z,101347.50
2022-10-06T03:06:25.173Z,101347.28
2022-10-06T03:08:56.973Z,101355.03
2022-10-06T03:11:26.040Z,101358.47
2022-10-06T03:13:53.217Z,101361.84
2022-10-06T03:16:32.094Z,101364.47
2022-10-06T03:18:59.951Z,101371.41
2022-10-06T03:21:33.248Z,101385.94
2022-10-06T03:24:00.778Z,101385.94
2022-10-06T03:26:30.577Z,101392.88
2022-10-06T03:28:57.635Z,101394.03
2022-10-06T03:31:25.623Z,101405.28
2022-10-06T03:33:53.097Z,101413.09
2022-10-06T03:36:22.499Z,101422.13
2022-10-06T03:38:49.122Z,101431.41
2022-10-06T03:41:21.159Z,101439.41
2022-10-06T03:43:49.492Z,101440.50
2022-10-06T03:46:21.803Z,101457.84
2022-10-06T03:48:50.126Z,101463.47
2022-10-06T03:51:22.098Z,101487.41
2022-10-06T03:53:51.004Z,101465.53
2022-10-06T03:56:23.624Z,101483.88
2022-10-06T03:59:04.097Z,101484.84
2022-10-06T04:01:36.649Z,101486.97
2022-10-06T04:04:04.424Z,101496.66
2022-10-06T04:06:33.592Z,101497.75
2022-10-06T04:09:01.029Z,101513.88
2022-10-06T04:11:33.102Z,101517.28
2022-10-06T04:14:01.083Z,101518.50
2022-10-06T04:16:29.910Z,101523.16
2022-10-06T04:19:00.315Z,101521.38
2022-10-06T04:21:28.240Z,101513.94
2022-10-06T04:23:56.535Z,101531.81
2022-10-06T04:26:25.329Z,101544.75
2022-10-06T04:28:52.004Z,101546.91
2022-10-06T04:31:24.684Z,101552.47
2022-10-06T04:33:59.633Z,101549.47
2022-10-06T04:36:32.243Z,101542.72
2022-10-06T04:39:02.861Z,101559.31
2022-10-06T04:41:32.259Z,101557.19
2022-10-06T04:43:59.660Z,101565.09
2022-10-06T04:46:44.529Z,101567.75
2022-10-06T04:49:18.647Z,101579.88
2022-10-06T04:51:46.301Z,101567.84
2022-10-06T04:54:12.928Z,101575.66
2022-10-06T04:56:39.513Z,101588.66
2022-10-06T04:59:06.092Z,101581.19
2022-10-06T05:01:35.612Z,101593.28
2022-10-06T05:04:04.481Z,101600.97
2022-10-06T05:06:32.831Z,101608.38
2022-10-06T05:09:14.900Z,101617.88
2022-10-06T05:11:41.689Z,101626.31
2022-10-06T05:14:08.347Z,101633.06
2022-10-06T05:16:38.085Z,101635.56
2022-10-06T05:19:05.641Z,101640.09
2022-10-06T05:21:33.392Z,101642.53
2022-10-06T05:24:00.521Z,101650.56
2022-10-06T05:26:32.178Z,101658.34
2022-10-06T05:28:58.923Z,101657.28
2022-10-06T05:31:31.743Z,101665.31
2022-10-06T05:33:59.968Z,101675.13
2022-10-06T05:36:29.790Z,101687.88
2022-10-06T05:38:57.402Z,101691.44
2022-10-06T05:41:28.964Z,101696.63
2022-10-06T05:43:56.117Z,101710.13
2022-10-06T05:46:25.433Z,101710.00
2022-10-06T05:48:57.537Z,101716.72
2022-10-06T05:51:30.700Z,101730.25
2022-10-06T05:53:58.964Z,101744.69
2022-10-06T05:56:27.889Z,101737.19
2022-10-06T05:58:56.163Z,101750.06
2022-10-06T06:01:31.455Z,101755.91
2022-10-06T06:04:01.277Z,101770.44
2022-10-06T06:06:35.860Z,101785.16
2022-10-06T06:09:10.145Z,101788.19
2022-10-06T06:11:39.520Z,101794.63
2022-10-06T06:14:13.912Z,101804.28
2022-10-06T06:16:42.180Z,101811.66
2022-10-06T06:19:10.357Z,101816.38
2022-10-06T06:21:37.644Z,101815.44
2022-10-06T06:24:05.038Z,101841.69
2022-10-06T06:26:33.820Z,101833.22
2022-10-06T06:29:05.272Z,101828.97
2022-10-06T06:31:37.411Z,101832.78
2022-10-06T06:34:06.685Z,101850.63
2022-10-06T06:36:40.948Z,101851.84
2022-10-06T06:39:10.330Z,101858.72
2022-10-06T06:41:39.903Z,101857.13
2022-10-06T06:44:08.417Z,101865.47
2022-10-06T06:49:07.793Z,101878.25
2022-10-06T06:51:37.393Z,101893.69
2022-10-06T06:54:04.999Z,101900.25
2022-10-06T06:56:35.162Z,101896.41
2022-10-06T06:59:05.749Z,101909.75
2022-10-06T07:01:32.400Z,101911.75
2022-10-06T07:03:59.403Z,101909.94
2022-10-06T07:06:28.797Z,101918.00
2022-10-06T07:08:57.679Z,101928.03
2022-10-06T07:11:30.637Z,101938.34
2022-10-06T07:14:05.207Z,101936.66
2022-10-06T07:16:51.061Z,101939.00
2022-10-06T07:19:38.080Z,101953.59
2022-10-06T07:22:26.416Z,101953.56
2022-10-06T07:25:08.831Z,101959.09
2022-10-06T07:27:52.860Z,101969.25
2022-10-06T07:30:28.760Z,101973.03
2022-10-06T07:32:55.833Z,101972.78
2022-10-06T07:35:23.612Z,101976.59
2022-10-06T07:37:51.558Z,101987.69
2022-10-06T07:40:18.587Z,101986.88
2022-10-06T07:42:48.946Z,101991.97
2022-10-06T07:45:36.547Z,101982.28
2022-10-06T07:48:04.146Z,101996.50
2022-10-06T07:50:31.058Z,101992.38
2022-10-06T07:52:57.773Z,101990.34
2022-10-06T07:55:24.397Z,102001.06
2022-10-06T07:57:51.367Z,102001.94
2022-10-06T08:00:22.396Z,102010.44
2022-10-06T08:02:49.784Z,102026.81
2022-10-06T08:05:16.470Z,102034.06
2022-10-06T08:07:43.077Z,102035.09
2022-10-06T08:10:09.915Z,102039.25
2022-10-06T08:12:40.778Z,102036.16
2022-10-06T08:15:09.258Z,102039.09
2022-10-06T08:17:36.846Z,102056.66
2022-10-06T08:20:09.451Z,102061.16
2022-10-06T08:22:38.886Z,102073.31
2022-10-06T08:25:07.836Z,102074.00
2022-10-06T08:27:36.195Z,102070.44
2022-10-06T08:30:05.968Z,102087.47
2022-10-06T08:32:33.393Z,102077.28
2022-10-06T08:35:00.124Z,102092.31
2022-10-06T08:37:27.355Z,102082.31
2022-10-06T08:39:54.827Z,102092.66
2022-10-06T08:42:42.498Z,102102.38
2022-10-06T08:45:15.420Z,102105.78
2022-10-06T08:47:50.956Z,102103.38
2022-10-06T08:50:18.137Z,102111.38
2022-10-06T08:52:56.023Z,102109.50
2022-10-06T08:55:45.255Z,102110.59
2022-10-06T08:58:46.214Z,102121.31
2022-10-06T09:01:19.630Z,102114.97
2022-10-06T09:03:49.000Z,102125.00
2022-10-06T09:06:18.613Z,102119.38
2022-10-06T09:08:53.720Z,102140.03
2022-10-06T09:11:31.650Z,102131.97
2022-10-06T09:14:17.335Z,102139.09
2022-10-06T09:16:50.390Z,102127.03
2022-10-06T09:19:33.897Z,102146.97
2022-10-06T09:22:02.445Z,102143.50
2022-10-06T09:24:49.523Z,102149.25
2022-10-06T09:27:23.967Z,102151.31
2022-10-06T09:29:51.634Z,102145.81
2022-10-06T09:32:20.802Z,102165.97
2022-10-06T09:34:52.887Z,102150.81
2022-10-06T09:37:19.561Z,102150.50
2022-10-06T09:39:49.580Z,102161.72
2022-10-06T09:42:25.367Z,102165.38
2022-10-06T09:45:04.999Z,102167.09
2022-10-06T09:47:47.622Z,102158.44
2022-10-06T09:50:22.123Z,102160.38
2022-10-06T09:52:57.952Z,102159.66
2022-10-06T09:55:29.575Z,102164.84
2022-10-06T09:57:57.462Z,102167.28
2022-10-06T10:00:38.620Z,102170.75
2022-10-06T10:03:12.364Z,102174.16
2022-10-06T10:05:46.997Z,102175.00
2022-10-06T10:08:13.525Z,102173.44
2022-10-06T10:10:41.080Z,102183.81
2022-10-06T10:13:26.461Z,102187.91
2022-10-06T10:16:00.688Z,102187.41
2022-10-06T10:18:30.389Z,102186.78
2022-10-06T10:21:05.191Z,102196.47
2022-10-06T10:23:39.291Z,102201.84
2022-10-06T10:26:29.060Z,102207.59
2022-10-06T10:29:33.472Z,102213.25
2022-10-06T10:32:13.030Z,102212.16
2022-10-06T10:34:49.980Z,102205.97
2022-10-06T10:37:24.358Z,102204.41
2022-10-06T10:39:59.238Z,102214.22
2022-10-06T10:42:49.953Z,102210.22
2022-10-06T10:45:38.001Z,102215.78
2022-10-06T10:48:34.155Z,102223.84
2022-10-06T10:51:07.098Z,102231.91
2022-10-06T10:53:57.006Z,102213.00
2022-10-06T10:56:26.433Z,102216.47
2022-10-06T10:59:16.489Z,102225.19
2022-10-06T11:01:53.552Z,102216.16
2022-10-06T11:04:20.577Z,102223.28
2022-10-06T11:07:17.835Z,102229.19
2022-10-06T11:09:54.030Z,102242.66
2022-10-06T11:12:42.675Z,102222.66
2022-10-06T11:15:18.606Z,102224.72
2022-10-06T11:17:47.367Z,102231.16
2022-10-06T11:21:14.634Z,102236.56
2022-10-06T11:23:50.891Z,102237.81
2022-10-06T11:26:49.491Z,102240.78
2022-10-06T11:29:39.429Z,102260.69
2022-10-06T11:32:37.398Z,102254.09
2022-10-06T11:35:19.687Z,102243.19
2022-10-06T11:37:58.449Z,102240.97
2022-10-06T11:40:42.259Z,102254.34
2022-10-06T11:43:35.852Z,102242.19
2022-10-06T11:46:31.247Z,102255.94
2022-10-06T11:49:30.344Z,102246.38
2022-10-06T11:52:08.188Z,102249.53
2022-10-06T11:54:37.659Z,102251.50
2022-10-06T11:57:30.365Z,102242.69
2022-10-06T12:00:16.281Z,102257.97
2022-10-06T12:02:48.635Z,102252.28
2022-10-06T12:08:02.756Z,102248.00
2022-10-06T12:10:29.313Z,102252.13
2022-10-06T12:42:01.953Z,102267.81
2022-10-06T12:44:31.592Z,102269.09
2022-10-06T12:47:04.035Z,102270.09
2022-10-06T12:49:40.396Z,102265.25
2022-10-06T12:52:15.757Z,102274.78
2022-10-06T12:54:53.661Z,102271.16
2022-10-06T12:57:23.499Z,102271.38
2022-10-06T12:59:50.360Z,102270.25
2022-10-06T13:02:26.914Z,102267.81
2022-10-06T13:05:01.698Z,102264.59
2022-10-06T13:07:31.256Z,102276.03
2022-10-06T13:10:16.059Z,102272.34
2022-10-06T13:12:47.529Z,102274.13
2022-10-06T13:15:20.650Z,102269.81
2022-10-06T13:18:02.731Z,102273.84
2022-10-06T13:20:35.596Z,102276.00
2022-10-06T13:23:23.699Z,102274.56
2022-10-06T13:26:13.218Z,102272.00
2022-10-06T13:28:42.893Z,102287.56
2022-10-06T13:31:15.366Z,102280.66
2022-10-06T13:33:44.388Z,102279.97
2022-10-06T13:36:12.498Z,102287.31
2022-10-06T13:38:41.288Z,102286.84
2022-10-06T13:41:14.041Z,102281.81
2022-10-06T13:43:45.771Z,102285.28
2022-10-06T13:46:16.898Z,102295.56
2022-10-06T13:48:48.662Z,102297.06
2022-10-06T13:51:22.115Z,102294.97
2022-10-06T13:53:49.407Z,102298.38
2022-10-06T13:58:56.220Z,102300.28
2022-10-06T14:01:31.089Z,102291.34
2022-10-06T14:04:14.945Z,102296.38
2022-10-06T14:07:02.145Z,102302.97
2022-10-06T14:09:32.925Z,102296.50
2022-10-06T14:12:12.675Z,102293.59
2022-10-06T14:14:39.633Z,102295.75
2022-10-06T14:17:06.964Z,102304.50
2022-10-06T14:19:38.905Z,102301.06
2022-10-06T14:22:06.136Z,102301.63
2022-10-06T14:24:37.545Z,102297.34
2022-10-06T14:27:06.887Z,102305.69
2022-10-06T14:29:34.377Z,102307.06
2022-10-06T14:32:10.412Z,102310.06
2022-10-06T14:34:37.019Z,102310.66
2022-10-06T14:37:03.769Z,102303.00
2022-10-06T14:39:30.499Z,102309.59
2022-10-06T14:42:00.213Z,102313.97
2022-10-06T14:44:26.907Z,102312.19
2022-10-06T14:46:54.651Z,102307.25
2022-10-06T14:49:22.152Z,102312.53
2022-10-06T14:51:48.795Z,102306.00
2022-10-06T14:54:15.588Z,102311.72
2022-10-06T14:56:42.517Z,102310.56
2022-10-06T14:59:12.575Z,102306.66
2022-10-06T15:01:40.628Z,102304.84
2022-10-06T15:04:13.199Z,102310.03
2022-10-06T15:07:06.585Z,102314.38
2022-10-06T15:09:33.257Z,102317.63
2022-10-06T15:12:00.293Z,102310.97
2022-10-06T15:14:28.494Z,102310.69
2022-10-06T15:16:59.056Z,102316.84
2022-10-06T15:19:26.276Z,102312.16
2022-10-06T15:21:52.953Z,102324.97
2022-10-06T15:24:20.027Z,102316.06
2022-10-06T15:27:06.249Z,102321.09
2022-10-06T15:29:34.858Z,102313.34
2022-10-06T15:32:02.730Z,102308.28
2022-10-06T15:34:32.342Z,102314.34
2022-10-06T15:36:59.614Z,102314.69
2022-10-06T15:39:28.918Z,102320.09
2022-10-06T15:41:56.217Z,102317.00
2022-10-06T15:44:23.430Z,102317.63
2022-10-06T15:46:54.831Z,102317.41
2022-10-06T15:49:22.650Z,102320.28
2022-10-06T15:52:03.270Z,102311.88
2022-10-06T15:54:33.896Z,102322.47
2022-10-06T15:57:02.617Z,102320.97
2022-10-06T15:59:32.832Z,102321.72
2022-10-06T16:02:08.449Z,102323.22
2022-10-06T16:04:39.382Z,102325.66
2022-10-06T16:07:14.505Z,102325.59
2022-10-06T16:09:43.988Z,102326.47
2022-10-06T16:12:13.028Z,102329.97
2022-10-06T16:14:39.837Z,102323.28
2022-10-06T16:17:07.277Z,102322.28
2022-10-06T16:19:37.048Z,102329.50
2022-10-06T16:22:05.783Z,102339.78
2022-10-06T16:24:33.138Z,102332.03
2022-10-06T16:27:00.245Z,102341.41
2022-10-06T16:29:28.268Z,102337.09
2022-10-06T16:31:55.835Z,102345.88
2022-10-06T16:34:23.193Z,102344.03
2022-10-06T16:36:49.848Z,102344.72
2022-10-06T16:39:21.617Z,102346.34
2022-10-06T16:41:48.925Z,102346.06
2022-10-06T16:44:15.603Z,102347.63
2022-10-06T16:46:43.994Z,102351.59
2022-10-06T16:49:11.145Z,102346.94
2022-10-06T16:51:40.183Z,102351.75
2022-10-06T16:54:12.455Z,102355.06
2022-10-06T16:56:40.462Z,102358.25
2022-10-06T16:59:11.767Z,102362.16
2022-10-06T17:01:38.466Z,102362.59
2022-10-06T17:04:17.835Z,102365.63
2022-10-06T17:06:50.143Z,102369.50
2022-10-06T17:09:17.640Z,102371.66
2022-10-06T17:11:47.498Z,102376.47
2022-10-06T17:14:14.871Z,102373.31
2022-10-06T17:16:44.055Z,102367.75
2022-10-06T17:19:12.528Z,102372.56
2022-10-06T17:21:48.784Z,102372.94
2022-10-06T17:24:18.211Z,102379.41
2022-10-06T17:26:47.462Z,102376.19
2022-10-06T17:29:21.216Z,102382.59
2022-10-06T17:31:50.807Z,102384.53
2022-10-06T17:34:21.891Z,102374.28
2022-10-06T17:36:51.564Z,102384.16
2022-10-06T17:39:21.536Z,102383.47
2022-10-06T17:41:50.275Z,102380.38
2022-10-06T17:44:22.923Z,102374.56
2022-10-06T17:46:52.925Z,102381.94
2022-10-06T17:49:21.593Z,102375.97
2022-10-06T17:51:49.275Z,102383.19
2022-10-06T17:54:19.802Z,102373.81
2022-10-06T17:56:51.642Z,102388.72
2022-10-06T17:59:28.604Z,102391.66
2022-10-06T18:01:57.059Z,102400.66
2022-10-06T18:04:24.921Z,102400.00
2022-10-06T18:06:55.980Z,102399.22
2022-10-06T18:09:25.829Z,102392.41
2022-10-06T18:11:56.794Z,102383.84
2022-10-06T18:14:28.735Z,102391.81
2022-10-06T18:16:59.311Z,102391.25
2022-10-06T18:19:36.003Z,102396.72
2022-10-06T18:22:10.774Z,102403.03
2022-10-06T18:24:44.019Z,102397.22
2022-10-06T18:27:13.832Z,102397.38
2022-10-06T18:29:41.364Z,102390.59
2022-10-06T18:33:13.059Z,102395.22
2022-10-06T18:37:43.150Z,102402.44
2022-10-06T18:40:11.254Z,102402.72
2022-10-06T18:42:39.297Z,102407.88
2022-10-06T18:45:25.920Z,102402.16
2022-10-06T18:48:11.050Z,102409.16
2022-10-06T18:50:38.500Z,102400.31
2022-10-06T18:53:05.820Z,102399.72
2022-10-06T18:55:35.786Z,102406.06
2022-10-06T18:58:14.788Z,102395.06
2022-10-06T19:00:41.438Z,102396.94
2022-10-06T19:03:08.114Z,102395.44
2022-10-06T19:05:35.237Z,102406.50
2022-10-06T19:08:01.847Z,102397.84
2022-10-06T19:10:29.813Z,102416.94
2022-10-06T19:12:58.324Z,102407.63
2022-10-06T19:15:24.912Z,102414.78
2022-10-06T19:17:51.507Z,102408.13
2022-10-06T19:20:18.686Z,102406.41
2022-10-06T19:22:47.567Z,102418.63
2022-10-06T19:25:14.792Z,102413.59
2022-10-06T19:27:41.649Z,102416.38
2022-10-06T19:30:09.494Z,102413.97
2022-10-06T19:32:36.287Z,102418.81
2022-10-06T19:35:07.667Z,102420.00
2022-10-06T19:37:35.990Z,102421.84
2022-10-06T19:40:02.826Z,102426.38
2022-10-06T19:42:47.731Z,102436.84
2022-10-06T19:45:16.084Z,102429.22
2022-10-06T19:47:43.099Z,102424.06
2022-10-06T19:50:12.434Z,102437.97
2022-10-06T19:52:40.477Z,102434.66
2022-10-06T19:55:07.527Z,102432.03
2022-10-06T19:58:16.071Z,102426.16
2022-10-06T20:01:28.023Z,102444.25
2022-10-06T20:08:06.847Z,102436.97
2022-10-06T20:11:21.665Z,102444.66
2022-10-06T20:20:24.685Z,102439.00
2022-10-06T20:22:51.336Z,102446.84
2022-10-06T20:25:17.955Z,102452.81
2022-10-06T20:27:45.355Z,102449.44
2022-10-06T20:31:29.459Z,102452.16
2022-10-06T20:34:58.856Z,102432.47
2022-10-06T20:41:18.682Z,102445.59
2022-10-06T20:43:45.579Z,102460.28
2022-10-06T20:46:12.312Z,102444.03
2022-10-06T20:48:41.052Z,102450.16
2022-10-06T20:51:16.476Z,102456.16
2022-10-06T20:53:43.169Z,102445.84
2022-10-06T20:56:40.322Z,102458.75
2022-10-06T20:59:32.272Z,102464.88
2022-10-06T21:08:34.674Z,102448.78
2022-10-06T21:11:54.817Z,102449.56
2022-10-06T21:14:21.422Z,102442.97
2022-10-06T21:20:10.210Z,102449.78
2022-10-06T21:22:36.744Z,102454.28
2022-10-06T21:33:22.864Z,102452.44
2022-10-06T21:35:59.877Z,102450.06
2022-10-06T21:38:27.208Z,102438.06
2022-10-06T21:40:54.608Z,102439.88
2022-10-06T21:50:34.490Z,102446.75
2022-10-06T21:53:01.179Z,102420.19
2022-10-06T21:55:27.839Z,102438.34
2022-10-06T21:57:54.421Z,102426.38
2022-10-06T22:00:21.034Z,102432.44
2022-10-06T22:02:47.824Z,102441.19
2022-10-06T22:05:14.530Z,102427.38
2022-10-06T22:07:41.579Z,102436.91
2022-10-06T22:23:44.454Z,102424.16
2022-10-06T22:26:12.698Z,102419.00
2022-10-06T22:33:01.000Z,102406.47
2022-10-06T22:35:25.504Z,102409.06
2022-10-06T22:37:52.127Z,102403.91
2022-10-06T22:40:18.917Z,102405.78
2022-10-06T22:42:45.526Z,102416.84
2022-10-06T22:45:12.520Z,102409.94
2022-10-06T22:47:39.086Z,102412.53
2022-10-06T22:54:45.029Z,102409.22
2022-10-06T22:57:51.121Z,102412.84
2022-10-06T23:00:57.581Z,102405.19
2022-10-06T23:04:16.038Z,102419.00
2022-10-06T23:10:53.499Z,102392.97
2022-10-06T23:13:21.186Z,102396.38
2022-10-06T23:15:47.997Z,102398.44
2022-10-06T23:18:14.853Z,102401.00
2022-10-06T23:20:41.547Z,102395.81
2022-10-06T23:23:08.180Z,102400.16
2022-10-06T23:25:38.539Z,102394.16
2022-10-06T23:28:05.419Z,102401.97
2022-10-06T23:30:34.974Z,102397.72
2022-10-06T23:33:02.119Z,102386.69
2022-10-06T23:35:28.861Z,102389.28
2022-10-06T23:37:55.459Z,102389.44
2022-10-06T23:40:22.110Z,102397.91
2022-10-06T23:42:48.701Z,102396.22
2022-10-06T23:45:15.322Z,102397.84
2022-10-06T23:47:42.209Z,102391.97
2022-10-06T23:50:09.331Z,102402.41
2022-10-06T23:52:36.001Z,102405.03
2022-10-06T23:55:02.592Z,102399.06
2022-10-06T23:57:29.171Z,102399.72
2022-10-06T23:59:55.762Z,102392.06
